Time;durP1;ratioP1;P1;durP2;ratioP2;P2;SDS_P1;SDS_P2;PMS_P1;PMS_P2;Temp;Humidity;BMP_temperature;BMP_pressure;BME280_temperature;BME280_humidity;BME280_pressure;Samples;Min_cycle;Max_cycle;Signal;HPM_P1;HPM_P2
2022/12/24 00:02:08;;;;;;;31.70;14.35;;;6.60;99.90;;;;;;5037935;28;20107;-77
2022/12/24 00:04:34;;;;;;;31.80;14.57;;;6.60;99.90;;;;;;5054719;28;20088;-77
2022/12/24 00:07:00;;;;;;;30.10;14.93;;;6.70;99.90;;;;;;5054708;28;20076;-77
2022/12/24 00:09:25;;;;;;;27.90;13.95;;;6.70;99.90;;;;;;5054627;28;20090;-77
2022/12/24 00:11:51;;;;;;;33.33;13.77;;;6.60;99.90;;;;;;5055763;28;20492;-77
2022/12/24 00:14:17;;;;;;;31.38;13.98;;;6.70;99.90;;;;;;5054777;28;20393;-78
2022/12/24 00:16:42;;;;;;;31.83;15.20;;;6.60;99.90;;;;;;5054928;28;20104;-79
2022/12/24 00:19:08;;;;;;;29.70;14.15;;;6.60;99.90;;;;;;5055243;28;20099;-78
2022/12/24 00:21:34;;;;;;;31.58;14.00;;;6.60;99.90;;;;;;5055764;28;20052;-78
2022/12/24 00:24:02;;;;;;;32.80;14.02;;;6.60;99.90;;;;;;5056026;28;20102;-76
2022/12/24 00:26:28;;;;;;;33.42;14.77;;;6.70;99.90;;;;;;5056201;28;20056;-77
2022/12/24 00:28:54;;;;;;;31.73;15.05;;;6.60;99.90;;;;;;5054966;28;20473;-76
2022/12/24 00:31:20;;;;;;;36.15;14.45;;;6.10;99.90;;;;;;5055555;28;20053;-77
2022/12/24 00:33:49;;;;;;;29.45;13.98;;;6.70;99.90;;;;;;5022265;28;20045;-77
2022/12/24 00:36:15;;;;;;;34.42;14.82;;;6.60;99.90;;;;;;5055829;28;20052;-77
2022/12/24 00:38:41;;;;;;;31.42;14.25;;;6.70;99.90;;;;;;5055139;28;20424;-76
2022/12/24 00:41:23;;;;;;;30.38;14.57;;;6.70;99.90;;;;;;5057284;28;20041;-77
2022/12/24 00:44:09;;;;;;;28.98;13.73;;;6.70;99.90;;;;;;5056134;28;20080;-77
2022/12/24 00:46:39;;;;;;;27.08;13.13;;;6.80;99.90;;;;;;5037599;28;20049;-78
2022/12/24 00:49:06;;;;;;;26.85;13.52;;;6.70;99.90;;;;;;5053898;28;20102;-77
2022/12/24 00:51:34;;;;;;;31.35;14.07;;;6.60;99.90;;;;;;5054997;28;20128;-77
2022/12/24 00:54:00;;;;;;;30.00;13.85;;;6.70;99.90;;;;;;5054718;28;20136;-77
2022/12/24 00:56:26;;;;;;;32.03;13.98;;;6.70;99.90;;;;;;5054654;28;20139;-76
2022/12/24 00:58:53;;;;;;;26.88;13.13;;;6.70;99.90;;;;;;5053698;28;20102;-76
2022/12/24 01:01:19;;;;;;;28.67;13.38;;;6.70;99.90;;;;;;5054736;28;20041;-76
2022/12/24 01:03:45;;;;;;;27.55;13.45;;;6.70;99.90;;;;;;5054705;28;20045;-77
2022/12/24 01:06:14;;;;;;;26.60;13.35;;;6.70;99.90;;;;;;5054210;28;20052;-76
2022/12/24 01:08:40;;;;;;;31.55;13.25;;;6.70;99.90;;;;;;5054256;28;20053;-77
2022/12/24 01:11:07;;;;;;;27.73;13.02;;;6.70;99.90;;;;;;5054722;28;20067;-78
2022/12/24 01:13:34;;;;;;;27.77;14.20;;;6.70;99.90;;;;;;5054653;28;20055;-78
2022/12/24 01:16:00;;;;;;;30.70;14.13;;;6.70;99.90;;;;;;5054753;28;20072;-78
2022/12/24 01:18:25;;;;;;;29.83;13.50;;;6.70;99.90;;;;;;5053634;28;20490;-79
2022/12/24 01:20:59;;;;;;;30.40;14.10;;;6.70;99.90;;;;;;5053599;28;20045;-77
2022/12/24 01:23:26;;;;;;;37.83;15.30;;;6.70;99.90;;;;;;5053469;28;20102;-79
2022/12/24 01:25:52;;;;;;;30.13;14.30;;;6.70;99.90;;;;;;5053119;28;20073;-79
2022/12/24 01:28:18;;;;;;;28.50;13.40;;;6.70;99.90;;;;;;5054671;28;20049;-79
2022/12/24 01:30:44;;;;;;;34.05;14.73;;;6.70;99.90;;;;;;5054442;28;20053;-79
2022/12/24 01:33:09;;;;;;;25.13;12.82;;;6.70;99.90;;;;;;5037085;28;20047;-79
2022/12/24 01:35:39;;;;;;;31.52;13.93;;;6.90;99.90;;;;;;5054311;28;20044;-79
2022/12/24 01:38:05;;;;;;;26.40;12.80;;;6.70;99.90;;;;;;5053471;28;20041;-79
2022/12/24 01:43:23;;;;;;;34.85;14.77;;;6.70;99.90;;;;;;5054155;28;20049;-79
2022/12/24 01:45:55;;;;;;;36.53;15.90;;;6.70;99.90;;;;;;5054459;28;20056;-79
2022/12/24 01:48:41;;;;;;;29.77;13.73;;;6.70;99.90;;;;;;5054835;28;20088;-79
2022/12/24 01:51:09;;;;;;;37.97;14.98;;;6.70;99.90;;;;;;5054336;28;20051;-79
2022/12/24 01:53:38;;;;;;;37.13;14.63;;;6.70;99.90;;;;;;5053162;28;20515;-79
2022/12/24 01:56:05;;;;;;;32.15;13.93;;;6.70;99.90;;;;;;5054160;28;20120;-79
2022/12/24 01:58:33;;;;;;;49.38;18.02;;;6.70;99.90;;;;;;5053722;28;20134;-79
2022/12/24 02:00:58;;;;;;;51.08;17.55;;;6.70;99.90;;;;;;5054100;28;20049;-79
2022/12/24 02:03:24;;;;;;;61.60;19.40;;;6.90;99.90;;;;;;5037373;28;20094;-79
2022/12/24 02:05:56;;;;;;;40.47;15.57;;;6.70;99.90;;;;;;5020010;28;20112;-80
2022/12/24 02:08:22;;;;;;;49.40;18.15;;;6.70;99.90;;;;;;5052775;28;20049;-80
2022/12/24 02:10:49;;;;;;;36.38;15.85;;;6.70;99.90;;;;;;5053884;28;20084;-80
2022/12/24 02:13:18;;;;;;;39.33;14.55;;;6.80;99.90;;;;;;5052981;28;20279;-80
2022/12/24 02:15:58;;;;;;;49.63;16.27;;;6.80;99.90;;;;;;5054092;28;20077;-80
2022/12/24 02:18:38;;;;;;;37.47;15.73;;;6.70;99.90;;;;;;5052580;28;20049;-80
2022/12/24 02:21:13;;;;;;;36.55;15.57;;;6.80;99.90;;;;;;5054398;28;20049;-80
2022/12/24 02:24:00;;;;;;;40.53;16.05;;;6.70;99.90;;;;;;5052721;28;20060;-80
2022/12/24 02:26:57;;;;;;;47.53;17.30;;;6.80;99.90;;;;;;5053811;28;20063;-80
2022/12/24 02:29:55;;;;;;;51.03;18.27;;;6.80;99.90;;;;;;5054024;28;20085;-80
2022/12/24 02:32:25;;;;;;;48.17;17.38;;;6.80;99.90;;;;;;5052922;28;20068;-79
2022/12/24 02:34:57;;;;;;;44.58;17.00;;;6.80;99.90;;;;;;5054135;28;20124;-79
2022/12/24 02:37:52;;;;;;;39.92;16.02;;;6.80;99.90;;;;;;5052344;28;20049;-80
2022/12/24 02:40:28;;;;;;;38.35;15.00;;;6.70;99.90;;;;;;5051153;28;20132;-79
2022/12/24 02:43:08;;;;;;;73.88;23.38;;;6.70;99.90;;;;;;5052829;28;20099;-79
2022/12/24 02:45:35;;;;;;;48.00;17.48;;;6.80;99.90;;;;;;5054008;28;20041;-79
2022/12/24 02:48:01;;;;;;;46.20;18.75;;;6.80;99.90;;;;;;5053352;28;20053;-80
2022/12/24 02:50:27;;;;;;;50.40;18.33;;;6.80;99.90;;;;;;5052093;28;20052;-79
2022/12/24 02:52:53;;;;;;;44.05;16.30;;;6.80;99.90;;;;;;5053149;28;20140;-80
2022/12/24 02:55:47;;;;;;;43.97;17.45;;;6.80;99.90;;;;;;5054096;28;20123;-79
2022/12/24 02:58:34;;;;;;;44.20;17.83;;;6.80;99.90;;;;;;5052622;28;20405;-79
2022/12/24 03:01:21;;;;;;;41.90;17.25;;;6.80;99.90;;;;;;5053269;28;20049;-79
2022/12/24 03:03:58;;;;;;;51.28;18.95;;;6.80;99.90;;;;;;5052406;28;20056;-79
2022/12/24 03:06:36;;;;;;;67.10;20.92;;;6.80;99.90;;;;;;5054030;28;20381;-79
2022/12/24 03:09:13;;;;;;;48.22;18.58;;;6.80;99.90;;;;;;5053242;28;20045;-79
2022/12/24 03:11:45;;;;;;;32.22;15.95;;;6.80;99.90;;;;;;5053375;28;20102;-79
2022/12/24 03:14:13;;;;;;;44.13;16.98;;;6.80;99.90;;;;;;5053771;28;20044;-78
2022/12/24 03:16:38;;;;;;;44.45;17.00;;;6.80;99.90;;;;;;5052836;28;20511;-78
2022/12/24 03:19:04;;;;;;;33.38;15.25;;;6.80;99.90;;;;;;5051869;28;20041;-79
2022/12/24 03:21:34;;;;;;;29.77;14.88;;;6.90;99.90;;;;;;5053136;28;20044;-79
2022/12/24 03:24:00;;;;;;;48.80;18.90;;;6.80;99.90;;;;;;5053048;28;20504;-78
2022/12/24 03:26:28;;;;;;;49.65;19.73;;;6.90;99.90;;;;;;5052906;28;20045;-78
2022/12/24 03:28:54;;;;;;;39.05;16.80;;;6.90;99.90;;;;;;5052946;28;20048;-79
2022/12/24 03:31:20;;;;;;;33.83;15.45;;;6.90;99.90;;;;;;5051684;28;20076;-75
2022/12/24 03:33:47;;;;;;;28.60;15.45;;;6.90;99.90;;;;;;5035320;28;20099;-79
2022/12/24 03:36:13;;;;;;;26.63;13.88;;;6.90;99.90;;;;;;5053467;28;20037;-78
2022/12/24 03:38:39;;;;;;;26.33;13.15;;;6.90;99.90;;;;;;5035261;28;20102;-79
2022/12/24 03:41:05;;;;;;;24.63;13.23;;;6.90;99.90;;;;;;5053315;28;20045;-78
2022/12/24 03:43:31;;;;;;;28.17;13.30;;;7.10;99.90;;;;;;5055739;28;20052;-79
2022/12/24 03:46:01;;;;;;;24.85;13.25;;;7.00;99.90;;;;;;5056393;28;20465;-78
2022/12/24 03:48:27;;;;;;;24.20;12.18;;;7.00;99.90;;;;;;5056485;28;20053;-79
2022/12/24 03:50:53;;;;;;;23.95;11.63;;;7.00;99.90;;;;;;5055612;28;20185;-78
2022/12/24 03:53:18;;;;;;;25.55;12.05;;;7.00;99.90;;;;;;5056697;28;20072;-77
2022/12/24 03:55:45;;;;;;;24.35;12.18;;;7.10;99.90;;;;;;5056283;28;20469;-78
2022/12/24 03:58:11;;;;;;;22.15;11.48;;;7.10;99.90;;;;;;5056478;28;20087;-77
2022/12/24 04:00:37;;;;;;;19.63;9.70;;;7.00;99.90;;;;;;5039253;28;20081;-76
2022/12/24 04:03:03;;;;;;;19.85;9.50;;;7.20;99.90;;;;;;5056232;28;20044;-78
2022/12/24 04:05:28;;;;;;;19.63;7.85;;;7.20;99.90;;;;;;5056003;28;20049;-79
2022/12/24 04:07:54;;;;;;;18.42;8.23;;;7.30;99.90;;;;;;5057508;28;20072;-78
2022/12/24 04:10:20;;;;;;;15.30;7.90;;;7.40;99.90;;;;;;5055913;28;20047;-77
2022/12/24 04:12:45;;;;;;;17.42;8.23;;;7.40;99.90;;;;;;5056688;28;20087;-79
2022/12/24 04:15:11;;;;;;;16.50;7.97;;;7.50;99.90;;;;;;5055262;28;20045;-79
2022/12/24 04:17:37;;;;;;;15.35;7.78;;;7.60;99.90;;;;;;5038317;28;20132;-74
2022/12/24 04:20:03;;;;;;;14.10;7.63;;;7.70;99.90;;;;;;5054822;28;20045;-78
2022/12/24 04:22:29;;;;;;;15.88;6.93;;;7.70;99.90;;;;;;5022690;28;20075;-82
2022/12/24 04:24:54;;;;;;;13.75;6.50;;;7.90;99.90;;;;;;5056432;28;20128;-75
2022/12/24 04:27:20;;;;;;;14.68;6.50;;;7.70;99.90;;;;;;5021863;28;20092;-81
2022/12/24 04:29:46;;;;;;;16.00;7.22;;;7.80;99.90;;;;;;5055544;28;20056;-83
2022/12/24 04:32:12;;;;;;;14.90;7.15;;;7.80;99.90;;;;;;5054879;28;20152;-77
2022/12/24 04:34:38;;;;;;;14.18;6.75;;;7.70;99.90;;;;;;5056256;28;20480;-83
2022/12/24 04:37:04;;;;;;;16.58;7.55;;;7.80;99.90;;;;;;5055014;28;20080;-82
2022/12/24 04:39:30;;;;;;;15.18;8.05;;;7.90;99.90;;;;;;5056097;28;20083;-82
2022/12/24 04:41:56;;;;;;;17.80;8.20;;;8.10;99.90;;;;;;5055119;28;20453;-83
2022/12/24 04:44:22;;;;;;;17.55;7.97;;;7.90;99.90;;;;;;5055603;28;20136;-82
2022/12/24 04:46:47;;;;;;;15.68;7.28;;;7.80;99.90;;;;;;5054241;28;20041;-82
2022/12/24 04:49:13;;;;;;;16.85;6.82;;;7.80;99.90;;;;;;5055552;28;20059;-83
2022/12/24 04:51:39;;;;;;;14.98;6.53;;;7.80;99.90;;;;;;5055547;28;20045;-81
2022/12/24 04:54:04;;;;;;;19.52;6.18;;;8.10;99.90;;;;;;5055073;28;20101;-81
2022/12/24 04:56:31;;;;;;;13.18;4.72;;;7.90;99.90;;;;;;5055952;28;20052;-77
2022/12/24 04:59:00;;;;;;;20.73;5.43;;;7.90;99.90;;;;;;5054115;28;20041;-81
2022/12/24 05:01:31;;;;;;;16.15;4.70;;;8.10;99.90;;;;;;5055355;28;20041;-81
2022/12/24 05:03:57;;;;;;;14.02;4.18;;;8.10;99.90;;;;;;5055230;28;20128;-79
2022/12/24 05:06:26;;;;;;;15.40;4.05;;;8.00;99.90;;;;;;5055649;28;20041;-75
2022/12/24 05:08:56;;;;;;;17.52;3.72;;;8.00;99.90;;;;;;5054115;28;20079;-80
2022/12/24 05:11:23;;;;;;;26.20;4.32;;;8.10;99.90;;;;;;5055048;28;20053;-73
2022/12/24 05:13:49;;;;;;;21.45;3.55;;;8.10;99.90;;;;;;5054766;28;20045;-77
2022/12/24 05:16:16;;;;;;;18.85;3.65;;;8.00;99.90;;;;;;5055074;28;20543;-77
2022/12/24 05:18:42;;;;;;;21.50;3.92;;;8.10;99.90;;;;;;5054842;28;20049;-77
2022/12/24 05:21:17;;;;;;;17.15;3.60;;;8.20;99.90;;;;;;5053908;28;20044;-76
2022/12/24 05:26:48;;;;;;;16.90;3.03;;;8.10;99.90;;;;;;5055028;28;20122;-73
2022/12/24 05:29:14;;;;;;;20.40;2.97;;;8.10;99.90;;;;;;5053469;28;20059;-77
2022/12/24 05:31:41;;;;;;;18.48;3.75;;;8.30;99.90;;;;;;5055098;28;20123;-77
2022/12/24 05:34:08;;;;;;;18.15;2.53;;;8.10;99.90;;;;;;5054716;28;20045;-80
2022/12/24 05:36:33;;;;;;;15.63;2.60;;;7.80;99.90;;;;;;5054589;28;20085;-78
2022/12/24 05:38:59;;;;;;;19.17;2.83;;;8.10;99.90;;;;;;5054462;28;20081;-77
2022/12/24 05:41:25;;;;;;;25.73;3.25;;;8.10;99.90;;;;;;5054434;28;20040;-77
2022/12/24 05:43:51;;;;;;;20.25;3.08;;;8.00;99.90;;;;;;5053188;28;20124;-80
2022/12/24 05:46:19;;;;;;;16.27;2.95;;;8.00;99.90;;;;;;5053452;28;20136;-72
2022/12/24 05:48:46;;;;;;;22.23;3.45;;;8.00;99.90;;;;;;5053647;28;20480;-79
2022/12/24 05:51:13;;;;;;;21.10;3.40;;;8.00;99.90;;;;;;5054101;28;20049;-77
2022/12/24 05:53:39;;;;;;;23.92;2.85;;;8.00;99.90;;;;;;5054135;28;20115;-78
2022/12/24 05:56:08;;;;;;;20.17;3.55;;;9.10;99.90;;;;;;5054227;28;20049;-80
2022/12/24 05:58:34;;;;;;;20.20;3.13;;;7.90;99.90;;;;;;5053119;28;20131;-76
2022/12/24 06:01:00;;;;;;;18.33;2.75;;;8.30;99.90;;;;;;5054108;28;20053;-78
2022/12/24 06:03:26;;;;;;;23.42;3.85;;;8.10;99.90;;;;;;5054309;28;20365;-78
2022/12/24 06:06:05;;;;;;;18.40;3.00;;;8.10;99.90;;;;;;5051738;28;20051;-77
2022/12/24 06:08:32;;;;;;;19.63;3.30;;;8.10;99.90;;;;;;5053053;28;20049;-76
2022/12/24 06:11:00;;;;;;;20.15;3.67;;;8.40;99.90;;;;;;5053494;28;20045;-78
2022/12/24 06:13:26;;;;;;;20.15;3.72;;;8.10;99.90;;;;;;5052701;28;20063;-78
2022/12/24 06:16:00;;;;;;;20.48;3.40;;;8.10;99.90;;;;;;5053898;28;20128;-78
2022/12/24 06:18:28;;;;;;;22.80;2.97;;;8.10;99.90;;;;;;5054049;28;20041;-74
2022/12/24 06:20:56;;;;;;;22.58;3.40;;;8.10;99.90;;;;;;5054597;28;20041;-78
2022/12/24 06:23:22;;;;;;;19.48;3.47;;;8.10;99.90;;;;;;5054492;28;20380;-78
2022/12/24 06:25:49;;;;;;;25.00;3.15;;;8.10;99.90;;;;;;5053657;28;20186;-77
2022/12/24 06:28:15;;;;;;;20.02;3.65;;;8.00;99.90;;;;;;5052576;28;20045;-78
2022/12/24 06:30:44;;;;;;;19.05;3.92;;;8.10;99.90;;;;;;5053255;28;20456;-75
2022/12/24 06:33:10;;;;;;;18.30;3.42;;;8.00;99.90;;;;;;5053588;28;20052;-76
2022/12/24 06:35:36;;;;;;;19.73;3.53;;;8.10;99.90;;;;;;5053544;28;20049;-77
2022/12/24 06:38:02;;;;;;;28.90;4.22;;;8.00;99.90;;;;;;5051990;28;20080;-77
2022/12/24 06:40:28;;;;;;;22.38;4.38;;;8.30;99.90;;;;;;5053028;28;20044;-76
2022/12/24 06:42:53;;;;;;;18.42;3.65;;;8.00;99.90;;;;;;5054262;28;20085;-76
2022/12/24 06:45:19;;;;;;;23.35;3.90;;;8.10;99.90;;;;;;5053174;28;20555;-76
2022/12/24 06:47:45;;;;;;;22.05;3.88;;;8.10;99.90;;;;;;5053485;28;20045;-76
2022/12/24 06:50:11;;;;;;;24.80;4.10;;;8.10;99.90;;;;;;5052618;28;20087;-72
2022/12/24 06:52:37;;;;;;;22.55;3.55;;;8.30;99.90;;;;;;5052136;28;20061;-75
2022/12/24 06:55:03;;;;;;;26.52;3.67;;;8.10;99.90;;;;;;5054103;28;20389;-76
2022/12/24 06:57:30;;;;;;;26.67;4.45;;;8.20;99.90;;;;;;5052528;28;20135;-76
2022/12/24 06:59:57;;;;;;;25.88;3.63;;;8.30;99.90;;;;;;5053101;28;20041;-75
2022/12/24 07:02:23;;;;;;;24.33;3.35;;;8.10;99.90;;;;;;5052306;28;20070;-75
2022/12/24 07:04:48;;;;;;;26.23;4.15;;;8.10;99.90;;;;;;5053712;28;20465;-76
2022/12/24 07:07:14;;;;;;;25.88;3.67;;;8.20;99.90;;;;;;5053251;28;20041;-77
2022/12/24 07:09:40;;;;;;;24.52;3.33;;;8.20;99.90;;;;;;5053286;28;20037;-77
2022/12/24 07:12:06;;;;;;;21.95;3.42;;;8.20;99.90;;;;;;5053171;28;20048;-75
2022/12/24 07:14:32;;;;;;;24.88;3.45;;;8.00;99.90;;;;;;5035714;28;20398;-76
2022/12/24 07:16:58;;;;;;;24.10;3.75;;;8.10;99.90;;;;;;5053904;28;20052;-76
2022/12/24 07:19:23;;;;;;;22.83;3.75;;;8.20;99.90;;;;;;5057246;28;20045;-76
2022/12/24 07:21:49;;;;;;;26.27;3.55;;;8.10;99.90;;;;;;5056643;28;20048;-76
2022/12/24 07:24:15;;;;;;;26.20;4.30;;;8.10;99.90;;;;;;5057624;28;20055;-77
2022/12/24 07:26:41;;;;;;;22.75;3.75;;;8.10;99.90;;;;;;5057096;28;20060;-76
2022/12/24 07:29:06;;;;;;;24.38;4.10;;;8.30;99.90;;;;;;5056313;28;20393;-76
2022/12/24 07:31:32;;;;;;;24.10;4.70;;;8.10;99.90;;;;;;5056413;28;20037;-77
2022/12/24 07:33:58;;;;;;;21.90;3.90;;;8.10;99.90;;;;;;5057217;28;20063;-76
2022/12/24 07:36:24;;;;;;;26.48;4.20;;;8.10;99.90;;;;;;5056152;28;20543;-76
2022/12/24 07:38:51;;;;;;;23.80;4.53;;;8.20;99.90;;;;;;5056426;28;20048;-76
2022/12/24 07:41:17;;;;;;;22.73;4.10;;;8.00;99.90;;;;;;5057263;28;20045;-76
2022/12/24 07:43:42;;;;;;;25.60;4.03;;;7.80;99.90;;;;;;5056459;28;20420;-75
2022/12/24 07:46:08;;;;;;;25.77;4.22;;;8.40;99.90;;;;;;5057167;28;20045;-77
2022/12/24 07:48:34;;;;;;;23.27;3.50;;;8.10;99.90;;;;;;5055675;28;20384;-76
2022/12/24 07:51:00;;;;;;;21.92;3.70;;;8.20;99.90;;;;;;5055015;28;20083;-76
2022/12/24 07:53:27;;;;;;;19.23;3.83;;;8.40;99.90;;;;;;5054867;28;20057;-76
2022/12/24 07:55:53;;;;;;;26.52;4.05;;;8.50;99.90;;;;;;5056390;28;20084;-76
2022/12/24 07:58:19;;;;;;;22.17;3.53;;;8.20;99.90;;;;;;5056313;28;20048;-76
2022/12/24 08:00:45;;;;;;;21.67;3.30;;;8.20;99.90;;;;;;5056299;28;20037;-76
2022/12/24 08:03:18;;;;;;;23.15;3.92;;;8.30;99.90;;;;;;5055200;28;20071;-76
2022/12/24 08:05:44;;;;;;;25.85;3.88;;;8.20;99.90;;;;;;5055038;28;20536;-74
2022/12/24 08:08:10;;;;;;;23.50;3.58;;;8.20;99.90;;;;;;5055213;28;20128;-76
2022/12/24 08:10:44;;;;;;;19.60;3.03;;;8.20;99.90;;;;;;5056086;28;20088;-77
2022/12/24 08:13:10;;;;;;;20.85;4.10;;;8.20;99.90;;;;;;5056091;28;20051;-76
2022/12/24 08:15:36;;;;;;;18.77;3.65;;;8.10;99.90;;;;;;5056056;28;20499;-74
2022/12/24 08:18:02;;;;;;;22.77;3.97;;;8.00;99.90;;;;;;5054731;28;20041;-76
2022/12/24 08:20:28;;;;;;;20.05;3.55;;;8.10;99.90;;;;;;5038896;28;20045;-79
2022/12/24 08:22:53;;;;;;;24.02;3.78;;;8.00;99.90;;;;;;5054658;28;20081;-79
2022/12/24 08:25:19;;;;;;;21.08;3.83;;;8.10;99.90;;;;;;5056441;28;20048;-79
2022/12/24 08:27:45;;;;;;;22.95;3.97;;;8.10;99.90;;;;;;5055149;28;20118;-81
2022/12/24 08:30:11;;;;;;;22.23;4.50;;;6.50;99.90;;;;;;5038802;28;20140;-79
2022/12/24 08:32:37;;;;;;;24.85;4.32;;;7.90;99.90;;;;;;5055807;28;20080;-80
2022/12/24 08:35:03;;;;;;;17.88;4.20;;;7.90;99.90;;;;;;5056359;28;20087;-79
2022/12/24 08:37:29;;;;;;;22.75;4.30;;;7.90;99.90;;;;;;5055675;28;20045;-80
2022/12/24 08:39:55;;;;;;;21.15;3.88;;;7.90;99.90;;;;;;5054470;28;20067;-81
2022/12/24 08:42:21;;;;;;;22.65;4.78;;;7.80;99.90;;;;;;5038205;28;20067;-79
2022/12/24 08:44:46;;;;;;;15.60;3.85;;;8.30;99.90;;;;;;5054712;28;20135;-84
2022/12/24 08:47:12;;;;;;;17.42;3.40;;;8.00;99.90;;;;;;5055871;28;20051;-81
2022/12/24 08:49:38;;;;;;;20.50;3.88;;;8.00;99.90;;;;;;5055475;28;20049;-80
2022/12/24 08:52:05;;;;;;;20.55;3.53;;;8.20;99.90;;;;;;5054519;28;20583;-72
2022/12/24 08:54:31;;;;;;;24.35;3.63;;;8.20;99.90;;;;;;5054224;28;20052;-79
2022/12/24 08:56:57;;;;;;;20.35;4.57;;;8.20;99.90;;;;;;5055610;28;20489;-82
2022/12/24 08:59:22;;;;;;;21.42;4.18;;;8.30;99.90;;;;;;5055746;28;20048;-82
2022/12/24 09:01:48;;;;;;;19.33;4.18;;;8.20;99.90;;;;;;5055445;28;20087;-80
2022/12/24 09:04:14;;;;;;;19.50;3.65;;;8.40;99.90;;;;;;5054789;28;20052;-84
2022/12/24 09:06:40;;;;;;;21.23;3.78;;;8.30;99.90;;;;;;5056403;28;20052;-81
2022/12/24 09:09:06;;;;;;;25.02;4.28;;;8.40;99.90;;;;;;5055457;28;20477;-77
2022/12/24 09:11:34;;;;;;;24.73;4.00;;;8.50;99.90;;;;;;5054027;28;20048;-78
2022/12/24 09:14:00;;;;;;;19.20;3.38;;;8.40;99.90;;;;;;5055074;28;20048;-78
2022/12/24 09:16:26;;;;;;;21.15;4.22;;;8.40;99.90;;;;;;5037900;28;20040;-77
2022/12/24 09:18:52;;;;;;;17.95;3.83;;;8.50;99.90;;;;;;5054013;28;20060;-78
2022/12/24 09:21:17;;;;;;;27.23;4.53;;;8.50;99.90;;;;;;5053815;28;20052;-77
2022/12/24 09:23:45;;;;;;;21.02;4.10;;;8.40;99.90;;;;;;5055607;28;20040;-78
2022/12/24 09:26:13;;;;;;;23.42;4.18;;;8.50;99.90;;;;;;5053926;28;20049;-77
2022/12/24 09:28:39;;;;;;;24.60;4.32;;;8.50;99.90;;;;;;5054530;28;20492;-77
2022/12/24 09:31:05;;;;;;;20.58;4.18;;;8.40;99.90;;;;;;5053585;28;20105;-77
2022/12/24 09:33:34;;;;;;;25.90;4.28;;;8.60;99.90;;;;;;5055003;28;20477;-76
2022/12/24 09:36:01;;;;;;;24.40;3.90;;;8.80;99.90;;;;;;5054814;28;20090;-80
2022/12/24 09:38:27;;;;;;;24.75;5.10;;;8.70;99.90;;;;;;5054602;28;20153;-84
2022/12/24 09:40:55;;;;;;;24.77;5.05;;;8.60;99.90;;;;;;5054691;28;20076;-81
2022/12/24 09:43:24;;;;;;;23.45;4.18;;;8.70;99.90;;;;;;5054083;28;20041;-81
2022/12/24 09:45:55;;;;;;;23.75;3.90;;;8.70;99.90;;;;;;5053676;28;20041;-81
2022/12/24 09:48:27;;;;;;;23.52;4.68;;;8.90;99.90;;;;;;5054269;28;20533;-82
2022/12/24 09:50:56;;;;;;;19.23;3.95;;;8.70;99.90;;;;;;5054335;28;20048;-79
2022/12/24 09:53:27;;;;;;;20.20;3.75;;;8.70;99.90;;;;;;5037335;28;20057;-77
2022/12/24 09:55:57;;;;;;;21.95;3.72;;;8.80;99.90;;;;;;5054223;28;20388;-77
2022/12/24 09:58:34;;;;;;;22.92;4.45;;;8.80;99.90;;;;;;5053090;28;20083;-76
2022/12/24 10:01:00;;;;;;;22.35;4.20;;;8.80;99.90;;;;;;5053999;28;20045;-76
2022/12/24 10:03:25;;;;;;;23.35;4.07;;;8.80;99.90;;;;;;5053515;28;20051;-81
2022/12/24 10:06:05;;;;;;;20.98;3.83;;;8.80;99.90;;;;;;5054251;28;20041;-80
2022/12/24 10:08:33;;;;;;;27.35;4.07;;;8.80;99.90;;;;;;5052832;28;20128;-79
2022/12/24 10:11:11;;;;;;;19.48;4.22;;;8.80;99.90;;;;;;5053303;28;20092;-73
2022/12/24 10:13:51;;;;;;;21.90;3.97;;;8.70;99.90;;;;;;5054582;28;20057;-77
2022/12/24 10:16:22;;;;;;;22.80;4.85;;;8.80;99.90;;;;;;5053018;28;20171;-78
2022/12/24 10:19:06;;;;;;;22.40;4.00;;;8.90;99.90;;;;;;5052674;28;20060;-78
2022/12/24 10:21:55;;;;;;;22.77;4.22;;;8.90;99.90;;;;;;5053954;28;20049;-80
2022/12/24 10:24:23;;;;;;;16.77;3.75;;;8.90;99.90;;;;;;5053865;28;20051;-77
2022/12/24 10:27:08;;;;;;;29.40;5.70;;;9.00;99.90;;;;;;5054065;28;20056;-79
2022/12/24 10:29:42;;;;;;;19.75;4.60;;;8.90;99.90;;;;;;5053555;28;20045;-77
2022/12/24 10:32:08;;;;;;;24.83;4.82;;;8.90;99.90;;;;;;5053849;28;20037;-79
2022/12/24 10:34:56;;;;;;;27.73;6.03;;;9.00;99.90;;;;;;5053911;28;20059;-82
2022/12/24 10:37:24;;;;;;;18.55;5.13;;;9.00;99.90;;;;;;5054192;28;20400;-80
2022/12/24 10:39:51;;;;;;;24.48;5.15;;;9.00;99.90;;;;;;5054884;28;20045;-79
2022/12/24 10:42:19;;;;;;;21.35;4.47;;;9.40;99.90;;;;;;5053461;28;20076;-81
2022/12/24 10:44:49;;;;;;;21.85;4.25;;;9.00;99.90;;;;;;5053863;28;20123;-80
2022/12/24 10:47:19;;;;;;;21.13;4.15;;;9.10;99.90;;;;;;5036406;28;20045;-81
2022/12/24 10:49:53;;;;;;;18.58;4.72;;;9.00;99.90;;;;;;5052602;28;20445;-80
2022/12/24 10:52:21;;;;;;;21.15;4.90;;;9.10;99.90;;;;;;5052969;28;20056;-79
2022/12/24 10:55:18;;;;;;;24.15;4.55;;;9.20;99.90;;;;;;5054125;28;20167;-79
2022/12/24 10:58:11;;;;;;;19.50;4.55;;;9.20;99.90;;;;;;5053436;28;20193;-78
2022/12/24 11:00:39;;;;;;;21.30;3.83;;;9.30;99.90;;;;;;5052716;28;20481;-81
2022/12/24 11:03:10;;;;;;;17.52;3.92;;;9.20;99.90;;;;;;5053230;28;20049;-82
2022/12/24 11:05:37;;;;;;;20.08;3.58;;;9.20;99.90;;;;;;5035773;28;20045;-74
2022/12/24 11:08:16;;;;;;;16.60;4.60;;;9.20;99.90;;;;;;5053826;28;20052;-74
2022/12/24 11:11:07;;;;;;;13.82;2.88;;;9.20;99.90;;;;;;5052883;28;20481;-81
2022/12/24 11:13:39;;;;;;;13.70;3.05;;;9.30;99.90;;;;;;5035820;28;20041;-75
2022/12/24 11:16:12;;;;;;;17.67;3.10;;;9.30;99.90;;;;;;5053290;28;20493;-74
2022/12/24 11:18:43;;;;;;;;;;;9.30;99.90;;;;;;5054408;28;20071;-74
2022/12/24 11:21:09;;;;;;;15.02;3.13;;;9.40;99.90;;;;;;5053972;28;19921;-73
2022/12/24 11:23:35;;;;;;;16.65;3.05;;;9.30;99.90;;;;;;5051957;28;20511;-74
2022/12/24 11:26:01;;;;;;;13.75;2.53;;;9.40;99.90;;;;;;5052950;28;20049;-74
2022/12/24 11:28:31;;;;;;;12.90;3.08;;;9.50;99.90;;;;;;5053073;28;20472;-74
2022/12/24 11:31:19;;;;;;;15.32;2.88;;;9.40;99.90;;;;;;5052360;28;20132;-73
2022/12/24 11:33:48;;;;;;;14.70;2.65;;;9.50;99.90;;;;;;5053007;28;20136;-74
2022/12/24 11:36:23;;;;;;;13.15;3.70;;;9.50;99.90;;;;;;5053076;28;20508;-73
2022/12/24 11:38:54;;;;;;;12.98;2.67;;;9.50;99.90;;;;;;5052960;28;20049;-74
2022/12/24 11:41:20;;;;;;;12.25;2.58;;;9.50;99.90;;;;;;5052987;28;20053;-74
2022/12/24 11:43:49;;;;;;;18.88;3.40;;;9.50;99.90;;;;;;5035502;28;20136;-74
2022/12/24 11:46:15;;;;;;;12.43;2.75;;;9.50;99.90;;;;;;5052972;28;20052;-75
2022/12/24 11:48:40;;;;;;;15.88;3.10;;;9.50;99.90;;;;;;5052691;28;20112;-71
2022/12/24 11:51:20;;;;;;;15.02;3.33;;;9.50;99.90;;;;;;5052888;28;20426;-74
2022/12/24 11:53:59;;;;;;;14.57;3.03;;;9.40;99.90;;;;;;5052650;28;20469;-74
2022/12/24 11:56:51;;;;;;;12.93;3.00;;;9.50;99.90;;;;;;5052261;28;20049;-73
2022/12/24 11:59:39;;;;;;;19.05;3.30;;;9.50;99.90;;;;;;5052546;28;20116;-75
2022/12/24 12:02:22;;;;;;;15.10;3.05;;;9.50;99.90;;;;;;5053567;28;20057;-72
2022/12/24 12:04:54;;;;;;;;;;;9.50;99.90;;;;;;5056011;28;20124;-75
2022/12/24 12:07:34;;;;;;;17.88;3.22;;;9.50;99.90;;;;;;5055708;28;19921;-73
2022/12/24 12:10:03;;;;;;;15.65;3.25;;;9.50;99.90;;;;;;5056369;28;20041;-71
2022/12/24 12:12:35;;;;;;;15.60;2.90;;;9.40;99.90;;;;;;5056066;28;20049;-76
2022/12/24 12:15:11;;;;;;;17.42;2.83;;;9.50;99.90;;;;;;5055666;28;20049;-74
2022/12/24 12:17:43;;;;;;;16.23;2.72;;;9.50;99.90;;;;;;5056875;28;20081;-75
2022/12/24 12:20:25;;;;;;;18.17;2.80;;;9.30;99.90;;;;;;5056176;28;20098;-75
2022/12/24 12:22:59;;;;;;;15.02;2.55;;;9.50;99.90;;;;;;5056190;28;20052;-75
2022/12/24 12:25:34;;;;;;;13.57;2.65;;;9.40;99.90;;;;;;5056061;28;20051;-75
2022/12/24 12:28:02;;;;;;;16.63;2.42;;;9.40;99.90;;;;;;5056910;28;20045;-84
2022/12/24 12:30:30;;;;;;;15.48;2.72;;;9.40;99.90;;;;;;5056012;28;20150;-85
2022/12/24 12:33:05;;;;;;;14.85;2.83;;;9.40;99.90;;;;;;5055979;28;20044;-82
2022/12/24 12:35:39;;;;;;;13.68;2.63;;;9.30;99.90;;;;;;5056642;28;20040;-85
2022/12/24 12:38:07;;;;;;;;;;;9.30;99.90;;;;;;5056942;28;20045;-81
2022/12/24 12:40:56;;;;;;;15.52;3.75;;;9.30;99.90;;;;;;5055799;28;19924;-78
2022/12/24 12:43:30;;;;;;;15.18;3.00;;;9.40;99.90;;;;;;5035958;28;20055;-79
2022/12/24 12:46:21;;;;;;;18.83;2.63;;;9.30;99.90;;;;;;5054830;28;20040;-79
2022/12/24 12:49:00;;;;;;;15.70;2.78;;;9.30;99.90;;;;;;5055799;28;20051;-79
2022/12/24 12:51:51;;;;;;;12.98;2.58;;;9.30;99.90;;;;;;5055661;28;20511;-77
2022/12/24 12:54:34;;;;;;;16.98;2.67;;;9.30;99.90;;;;;;5054581;28;20469;-79
2022/12/24 12:57:07;;;;;;;13.18;2.40;;;9.30;99.90;;;;;;5055535;28;20087;-80
2022/12/24 12:59:43;;;;;;;16.20;2.90;;;9.30;99.90;;;;;;5054353;28;20163;-76
2022/12/24 13:02:40;;;;;;;15.00;3.10;;;9.30;99.90;;;;;;5056017;28;20040;-74
2022/12/24 13:05:26;;;;;;;13.73;2.33;;;9.10;99.90;;;;;;5037842;28;20056;-79